createdAt,value
2022-07-25T00:01:30.233Z,2.03
2022-07-25T00:03:57.484Z,2.40
2022-07-25T00:06:24.609Z,2.63
2022-07-25T00:08:51.753Z,2.17
2022-07-25T00:11:18.870Z,1.85
2022-07-25T00:13:46.730Z,1.92
2022-07-25T00:16:13.993Z,2.20
2022-07-25T00:18:41.196Z,3.03
2022-07-25T00:21:08.768Z,2.33
2022-07-25T00:23:35.873Z,2.60
2022-07-25T00:26:02.992Z,2.55
2022-07-25T00:28:30.034Z,1.98
2022-07-25T00:30:57.167Z,2.28
2022-07-25T00:33:24.354Z,2.28
2022-07-25T00:35:51.412Z,2.28
2022-07-25T00:38:18.446Z,2.20
2022-07-25T00:40:45.574Z,2.30
2022-07-25T00:43:23.057Z,2.17
2022-07-25T00:45:50.139Z,2.42
2022-07-25T00:48:17.289Z,2.60
2022-07-25T00:50:44.396Z,2.47
2022-07-25T00:53:11.587Z,2.60
2022-07-25T00:55:38.599Z,2.33
2022-07-25T00:58:05.781Z,2.15
2022-07-25T01:00:32.820Z,2.10
2022-07-25T01:02:59.971Z,2.35
2022-07-25T01:05:27.293Z,2.47
2022-07-25T01:07:54.343Z,2.10
2022-07-25T01:10:21.424Z,2.40
2022-07-25T01:12:53.550Z,1.80
2022-07-25T01:15:23.420Z,2.10
2022-07-25T01:17:50.630Z,2.30
2022-07-25T01:20:22.301Z,2.25
2022-07-25T01:22:49.490Z,2.10
2022-07-25T01:25:16.573Z,2.15
2022-07-25T01:27:43.775Z,2.00
2022-07-25T01:30:12.473Z,2.25
2022-07-25T01:32:39.506Z,2.55
2022-07-25T01:35:07.477Z,1.98
2022-07-25T01:37:34.631Z,2.53
2022-07-25T01:40:01.797Z,2.40
2022-07-25T01:42:28.947Z,2.15
2022-07-25T01:44:56.035Z,2.35
2022-07-25T01:47:23.142Z,2.70
2022-07-25T01:49:50.233Z,2.53
2022-07-25T01:52:17.312Z,2.30
2022-07-25T01:54:44.507Z,2.33
2022-07-25T01:57:11.566Z,2.60
2022-07-25T01:59:40.937Z,2.33
2022-07-25T02:02:08.578Z,1.92
2022-07-25T02:04:35.774Z,2.17
2022-07-25T02:07:03.039Z,2.30
2022-07-25T02:09:30.098Z,2.85
2022-07-25T02:11:57.164Z,2.63
2022-07-25T02:14:24.247Z,2.10
2022-07-25T02:16:51.454Z,2.92
2022-07-25T02:19:18.586Z,2.17
2022-07-25T02:21:45.681Z,2.78
2022-07-25T02:24:12.814Z,2.63
2022-07-25T02:26:39.919Z,2.35
2022-07-25T02:29:06.912Z,2.75
2022-07-25T02:31:33.983Z,2.25
2022-07-25T02:34:01.057Z,2.80
2022-07-25T02:36:28.163Z,2.42
2022-07-25T02:38:55.195Z,2.22
2022-07-25T02:41:22.318Z,2.83
2022-07-25T02:43:49.417Z,2.97
2022-07-25T02:46:16.535Z,3.08
2022-07-25T02:48:43.684Z,2.80
2022-07-25T02:51:10.809Z,2.85
2022-07-25T02:53:56.493Z,2.80
2022-07-25T02:56:24.623Z,2.10
2022-07-25T02:58:51.755Z,2.45
2022-07-25T03:01:18.965Z,2.13
2022-07-25T03:03:46.299Z,2.00
2022-07-25T03:06:13.383Z,2.30
2022-07-25T03:08:40.382Z,2.40
2022-07-25T03:11:07.436Z,2.53
2022-07-25T03:13:34.517Z,2.67
2022-07-25T03:16:01.708Z,2.72
2022-07-25T03:18:28.815Z,2.70
2022-07-25T03:20:55.948Z,2.58
2022-07-25T03:23:25.200Z,3.22
2022-07-25T03:25:52.296Z,2.83
2022-07-25T03:28:19.317Z,2.10
2022-07-25T03:30:46.489Z,2.33
2022-07-25T03:33:13.534Z,2.60
2022-07-25T03:35:40.594Z,3.38
2022-07-25T03:38:07.939Z,3.00
2022-07-25T03:40:35.620Z,3.55
2022-07-25T03:43:02.925Z,3.35
2022-07-25T03:45:30.129Z,2.22
2022-07-25T03:47:57.317Z,3.47
2022-07-25T03:50:24.507Z,2.17
2022-07-25T03:52:53.203Z,1.90
2022-07-25T03:55:20.292Z,2.35
2022-07-25T03:57:47.588Z,2.33
2022-07-25T04:00:14.848Z,2.55
2022-07-25T04:02:42.032Z,2.63
2022-07-25T04:05:09.507Z,2.40
2022-07-25T04:07:39.846Z,2.20
2022-07-25T04:10:07.947Z,2.15
2022-07-25T04:12:35.111Z,2.35
2022-07-25T04:15:02.238Z,2.65
2022-07-25T04:17:29.405Z,2.72
2022-07-25T04:19:57.504Z,2.33
2022-07-25T04:22:24.677Z,2.40
2022-07-25T04:24:51.782Z,2.50
2022-07-25T04:27:19.032Z,2.60
2022-07-25T04:29:46.154Z,2.53
2022-07-25T04:32:13.983Z,2.40
2022-07-25T04:34:41.056Z,2.72
2022-07-25T04:37:08.202Z,2.35
2022-07-25T04:39:35.228Z,2.55
2022-07-25T04:42:02.275Z,2.40
2022-07-25T04:44:29.446Z,1.95
2022-07-25T04:46:56.584Z,2.92
2022-07-25T04:49:23.680Z,2.75
2022-07-25T04:51:50.807Z,2.25
2022-07-25T04:54:17.926Z,3.35
2022-07-25T04:56:44.999Z,3.13
2022-07-25T04:59:12.137Z,1.98
2022-07-25T05:01:39.251Z,2.70
2022-07-25T05:04:06.487Z,2.70
2022-07-25T05:06:34.062Z,2.20
2022-07-25T05:09:01.138Z,2.80
2022-07-25T05:11:28.234Z,2.00
2022-07-25T05:13:55.370Z,2.10
2022-07-25T05:16:22.605Z,2.20
2022-07-25T05:18:49.674Z,1.98
2022-07-25T05:21:16.871Z,2.30
2022-07-25T05:23:44.397Z,2.55
2022-07-25T05:26:11.409Z,2.17
2022-07-25T05:28:38.651Z,2.20
2022-07-25T05:31:06.015Z,2.13
2022-07-25T05:33:34.153Z,1.83
2022-07-25T05:36:04.383Z,2.13
2022-07-25T05:38:31.864Z,1.90
2022-07-25T05:41:01.233Z,2.00
2022-07-25T05:43:30.910Z,1.70
2022-07-25T05:46:08.736Z,2.00
2022-07-25T05:48:40.065Z,2.42
2022-07-25T05:51:11.047Z,2.10
2022-07-25T05:53:45.125Z,1.70
2022-07-25T05:56:13.522Z,2.15
2022-07-25T05:58:41.229Z,2.20
2022-07-25T06:01:21.188Z,2.20
2022-07-25T06:03:48.313Z,1.70
2022-07-25T06:06:15.565Z,2.33
2022-07-25T06:08:42.760Z,2.10
2022-07-25T06:11:12.648Z,2.00
2022-07-25T06:13:39.736Z,2.15
2022-07-25T06:16:08.026Z,2.28
2022-07-25T06:18:35.112Z,2.30
2022-07-25T06:21:02.274Z,2.40
2022-07-25T06:23:29.471Z,2.03
2022-07-25T06:25:56.819Z,2.40
2022-07-25T06:28:24.060Z,2.55
2022-07-25T06:30:51.115Z,2.67
2022-07-25T06:33:20.250Z,2.55
2022-07-25T06:35:57.210Z,2.58
2022-07-25T06:38:26.772Z,2.35
2022-07-25T06:40:55.448Z,2.20
2022-07-25T06:43:22.587Z,2.80
2022-07-25T06:45:50.845Z,2.40
2022-07-25T06:48:38.973Z,2.35
2022-07-25T06:51:15.867Z,2.47
2022-07-25T06:54:22.734Z,2.40
2022-07-25T06:57:00.408Z,2.10
2022-07-25T06:59:33.479Z,2.10
2022-07-25T07:02:03.811Z,2.58
2022-07-25T07:04:31.066Z,2.47
2022-07-25T07:59:15.680Z,2.28
2022-07-25T08:02:04.737Z,2.63
2022-07-25T08:04:35.016Z,2.75
2022-07-25T08:07:06.010Z,2.83
2022-07-25T08:10:42.054Z,2.30
2022-07-25T08:17:19.248Z,2.53
2022-07-25T08:20:35.703Z,2.25
2022-07-25T08:29:46.446Z,2.63
2022-07-25T08:32:15.907Z,2.25
2022-07-25T08:34:43.183Z,2.72
2022-07-25T08:37:10.747Z,2.45
2022-07-25T08:39:38.011Z,2.22
2022-07-25T08:42:10.939Z,2.17
2022-07-25T08:47:06.915Z,2.92
2022-07-25T08:53:39.413Z,2.45
2022-07-25T09:03:28.775Z,2.38
2022-07-25T09:07:08.070Z,1.98
2022-07-25T09:09:52.467Z,2.10
2022-07-25T09:12:44.826Z,2.20
2022-07-25T09:15:36.094Z,2.10
2022-07-25T09:21:31.919Z,1.75
2022-07-25T09:24:16.178Z,2.38
2022-07-25T09:33:27.337Z,3.83
2022-07-25T09:36:02.037Z,2.65
2022-07-25T09:38:29.157Z,2.50
2022-07-25T09:41:01.612Z,8.85
2022-07-25T09:43:38.819Z,6.47
2022-07-25T09:46:07.110Z,6.07
2022-07-25T09:48:35.178Z,6.20
2022-07-25T09:51:02.359Z,6.90
2022-07-25T10:00:08.284Z,6.25
2022-07-25T10:03:15.040Z,5.93
2022-07-25T10:07:05.204Z,4.95
2022-07-25T10:23:04.067Z,2.40
2022-07-25T10:25:31.357Z,2.92
2022-07-25T10:28:08.394Z,3.53
2022-07-25T10:30:37.967Z,2.85
2022-07-25T10:33:15.779Z,3.00
2022-07-25T10:35:42.993Z,2.25
2022-07-25T10:38:10.090Z,2.88
2022-07-25T10:40:42.117Z,3.33
2022-07-25T10:43:43.648Z,3.47
2022-07-25T10:46:20.704Z,2.60
2022-07-25T10:58:16.200Z,3.55
2022-07-25T11:04:15.504Z,3.38
2022-07-25T11:06:58.360Z,3.45
2022-07-25T11:10:02.553Z,3.67
2022-07-25T11:12:39.479Z,3.25
2022-07-25T11:15:17.245Z,3.13
2022-07-25T11:18:38.309Z,2.95
2022-07-25T11:21:28.262Z,2.42
2022-07-25T11:24:31.257Z,2.47
2022-07-25T11:33:14.504Z,3.20
2022-07-25T11:35:53.932Z,3.05
2022-07-25T11:39:25.312Z,2.95
2022-07-25T11:42:22.309Z,3.43
2022-07-25T11:52:31.980Z,13.23
2022-07-25T11:55:06.577Z,6.00
2022-07-25T11:57:45.863Z,5.20
2022-07-25T12:14:25.336Z,3.95
2022-07-25T12:30:57.105Z,4.00
2022-07-25T13:05:02.169Z,3.33
2022-07-25T15:23:17.132Z,4.43
2022-07-25T15:29:47.672Z,4.53
2022-07-25T15:38:10.579Z,4.55
2022-07-25T15:40:39.578Z,5.22
2022-07-25T15:45:56.235Z,5.13
2022-07-25T15:48:25.018Z,5.80
2022-07-25T15:50:52.548Z,4.68
2022-07-25T15:53:22.514Z,4.78
2022-07-25T15:56:01.222Z,4.38
2022-07-25T16:02:24.819Z,4.93
2022-07-25T16:04:55.177Z,4.22
2022-07-25T18:40:02.276Z,4.90
2022-07-25T18:43:03.081Z,5.15
2022-07-25T18:46:10.569Z,4.80
2022-07-25T18:48:50.924Z,4.68
2022-07-25T18:52:00.726Z,4.72
2022-07-25T19:24:29.088Z,4.80
2022-07-25T19:41:46.648Z,5.60
2022-07-25T19:44:18.751Z,4.72
2022-07-25T19:46:56.037Z,5.47
2022-07-25T19:49:35.343Z,4.97
2022-07-25T19:52:03.434Z,4.65
2022-07-25T19:54:31.330Z,4.85
2022-07-25T19:57:00.449Z,5.32
2022-07-25T19:59:39.113Z,5.47
2022-07-25T20:02:11.268Z,4.82
2022-07-25T20:11:21.626Z,6.35
2022-07-25T20:59:58.105Z,6.68
